This is the latest recevied weather packets stored in our database for station/object PU2ONU-13. If no packets are shown the sender has not sent any weather packets the latest 10 day(s).
| Time | Temp. | Humidity | Pressure | Rain* | Wind** | Luminosity | Snow |
|---|---|---|---|---|---|---|---|
| 1777573211 | 32.22° C | 37% | 1014 hPa | - | - | - | - |
| 1777572025 | 30° C | 43% | 1014 hPa | - | - | - | - |
| 1777567213 | 31.11° C | 40% | 1015 hPa | - | - | - | - |
| 1777566013 | 31.67° C | 41% | 1015 hPa | - | - | - | - |
| 1777564813 | 31.11° C | 43% | 1015 hPa | - | - | - | - |
| 1777563613 | 30.56° C | 44% | 1015 hPa | - | - | - | - |
| 1777558816 | 28.89° C | 46% | 1018 hPa | - | - | - | - |
| 1777550412 | 29.44° C | 41% | 1017 hPa | - | - | - | - |
| 1777548013 | 28.89° C | 41% | 1018 hPa | - | - | - | - |
| 1777546814 | 28.33° C | 44% | 1017 hPa | - | - | - | - |
| 1777544412 | 28.89° C | 41% | 1017 hPa | - | - | - | - |
| 1777543213 | 27.78° C | 43% | 1016 hPa | - | - | - | - |
| 1777542014 | 27.22° C | 44% | 1016 hPa | - | - | - | - |
| 1777540812 | 28.33° C | 43% | 1016 hPa | - | - | - | - |
| 1777539613 | 27.78° C | 45% | 1016 hPa | - | - | - | - |
| 1777538413 | 28.33° C | 45% | 1016 hPa | - | - | - | - |
| 1777537212 | 27.78° C | 47% | 1016 hPa | - | - | - | - |
| 1777534813 | 28.33° C | 46% | 1016 hPa | - | - | - | - |
| 1777533613 | 28.33° C | 46% | 1017 hPa | - | - | - | - |
| 1777532412 | 27.78° C | 47% | 1016 hPa | - | - | - | - |
| 1777531213 | 27.22° C | 47% | 1016 hPa | - | - | - | - |
| 1777530013 | 27.78° C | 47% | 1017 hPa | - | - | - | - |
| 1777528813 | 26.67° C | 51% | 1016 hPa | - | - | - | - |
| 1777527613 | 26.67° C | 50% | 1016 hPa | - | - | - | - |
| 1777526412 | 28.89° C | 46% | 1017 hPa | - | - | - | - |
* Rain since midnight (hover to see other rain measurements)
** Current wind speed in m/s (hover to see current wind gust speed)